sensor_id;sensor_type;location;lat;lon;timestamp;pressure;altitude;pressure_sealevel;temperature;humidity
58473;BME280;44775;51.564;5.460;2023-05-23T00:01:08;101593.47;;;14.76;100.00
58473;BME280;44775;51.564;5.460;2023-05-23T00:03:34;101592.16;;;14.72;100.00
58473;BME280;44775;51.564;5.460;2023-05-23T00:06:00;101587.53;;;14.58;100.00
58473;BME280;44775;51.564;5.460;2023-05-23T00:08:25;101583.38;;;14.78;100.00
58473;BME280;44775;51.564;5.460;2023-05-23T00:10:51;101587.66;;;14.64;100.00
58473;BME280;44775;51.564;5.460;2023-05-23T00:13:16;101592.94;;;14.81;100.00
58473;BME280;44775;51.564;5.460;2023-05-23T00:15:43;101583.78;;;14.67;100.00
58473;BME280;44775;51.564;5.460;2023-05-23T00:18:09;101590.69;;;14.93;100.00
58473;BME280;44775;51.564;5.460;2023-05-23T00:20:38;101582.47;;;14.86;100.00
58473;BME280;44775;51.564;5.460;2023-05-23T00:23:08;101589.75;;;14.77;100.00
58473;BME280;44775;51.564;5.460;2023-05-23T00:25:35;101597.84;;;15.00;100.00
58473;BME280;44775;51.564;5.460;2023-05-23T00:28:01;101594.69;;;14.97;100.00
58473;BME280;44775;51.564;5.460;2023-05-23T00:30:29;101607.91;;;15.06;100.00
58473;BME280;44775;51.564;5.460;2023-05-23T00:32:55;101587.44;;;14.97;100.00
58473;BME280;44775;51.564;5.460;2023-05-23T00:35:20;101600.97;;;14.89;100.00
58473;BME280;44775;51.564;5.460;2023-05-23T00:37:46;101611.06;;;14.87;100.00
58473;BME280;44775;51.564;5.460;2023-05-23T00:40:14;101606.00;;;14.92;100.00
58473;BME280;44775;51.564;5.460;2023-05-23T00:42:39;101613.88;;;14.94;100.00
58473;BME280;44775;51.564;5.460;2023-05-23T00:45:05;101610.47;;;15.00;100.00
58473;BME280;44775;51.564;5.460;2023-05-23T00:47:31;101620.44;;;14.91;100.00
58473;BME280;44775;51.564;5.460;2023-05-23T00:49:56;101615.78;;;15.08;100.00
58473;BME280;44775;51.564;5.460;2023-05-23T00:52:22;101611.84;;;15.19;100.00
58473;BME280;44775;51.564;5.460;2023-05-23T00:54:47;101608.72;;;15.07;100.00
58473;BME280;44775;51.564;5.460;2023-05-23T00:57:13;101603.06;;;15.02;100.00
58473;BME280;44775;51.564;5.460;2023-05-23T00:59:39;101611.75;;;15.12;100.00
58473;BME280;44775;51.564;5.460;2023-05-23T01:02:04;101617.97;;;15.13;100.00
58473;BME280;44775;51.564;5.460;2023-05-23T01:04:30;101618.13;;;15.34;100.00
58473;BME280;44775;51.564;5.460;2023-05-23T01:06:58;101614.94;;;15.07;100.00
58473;BME280;44775;51.564;5.460;2023-05-23T01:09:26;101616.75;;;15.15;100.00
58473;BME280;44775;51.564;5.460;2023-05-23T01:14:59;101625.72;;;15.07;100.00
58473;BME280;44775;51.564;5.460;2023-05-23T01:17:43;101632.66;;;14.79;100.00
58473;BME280;44775;51.564;5.460;2023-05-23T01:20:16;101642.31;;;14.88;100.00
58473;BME280;44775;51.564;5.460;2023-05-23T01:25:52;101629.53;;;14.90;100.00
58473;BME280;44775;51.564;5.460;2023-05-23T01:28:29;101628.03;;;14.87;100.00
58473;BME280;44775;51.564;5.460;2023-05-23T01:30:57;101631.94;;;14.85;100.00
58473;BME280;44775;51.564;5.460;2023-05-23T01:33:23;101636.03;;;14.73;100.00
58473;BME280;44775;51.564;5.460;2023-05-23T01:35:49;101637.19;;;14.78;100.00
58473;BME280;44775;51.564;5.460;2023-05-23T01:38:15;101635.34;;;14.79;100.00
58473;BME280;44775;51.564;5.460;2023-05-23T01:40:40;101637.91;;;14.64;100.00
58473;BME280;44775;51.564;5.460;2023-05-23T01:43:06;101633.34;;;14.73;100.00
58473;BME280;44775;51.564;5.460;2023-05-23T01:45:32;101639.91;;;14.70;100.00
58473;BME280;44775;51.564;5.460;2023-05-23T01:47:58;101647.84;;;14.63;100.00
58473;BME280;44775;51.564;5.460;2023-05-23T01:50:24;101644.41;;;14.78;100.00
58473;BME280;44775;51.564;5.460;2023-05-23T01:52:50;101653.75;;;14.59;100.00
58473;BME280;44775;51.564;5.460;2023-05-23T01:55:19;101648.81;;;14.71;100.00
58473;BME280;44775;51.564;5.460;2023-05-23T01:57:50;101659.06;;;14.75;100.00
58473;BME280;44775;51.564;5.460;2023-05-23T02:00:16;101657.63;;;14.87;100.00
58473;BME280;44775;51.564;5.460;2023-05-23T02:02:41;101657.22;;;14.76;100.00
58473;BME280;44775;51.564;5.460;2023-05-23T02:05:08;101650.41;;;14.49;100.00
58473;BME280;44775;51.564;5.460;2023-05-23T02:07:34;101649.44;;;14.33;100.00
58473;BME280;44775;51.564;5.460;2023-05-23T02:10:00;101661.72;;;14.36;100.00
58473;BME280;44775;51.564;5.460;2023-05-23T02:12:25;101659.53;;;14.39;100.00
58473;BME280;44775;51.564;5.460;2023-05-23T02:14:50;101662.44;;;14.22;100.00
58473;BME280;44775;51.564;5.460;2023-05-23T02:17:16;101665.97;;;14.22;100.00
58473;BME280;44775;51.564;5.460;2023-05-23T02:19:42;101665.13;;;14.13;100.00
58473;BME280;44775;51.564;5.460;2023-05-23T02:22:07;101661.19;;;14.40;100.00
58473;BME280;44775;51.564;5.460;2023-05-23T02:24:33;101675.94;;;14.61;100.00
58473;BME280;44775;51.564;5.460;2023-05-23T02:26:58;101673.78;;;14.48;100.00
58473;BME280;44775;51.564;5.460;2023-05-23T02:29:23;101670.13;;;14.33;100.00
58473;BME280;44775;51.564;5.460;2023-05-23T02:31:48;101681.16;;;14.54;100.00
58473;BME280;44775;51.564;5.460;2023-05-23T02:34:14;101673.31;;;14.45;100.00
58473;BME280;44775;51.564;5.460;2023-05-23T02:36:39;101677.97;;;14.59;100.00
58473;BME280;44775;51.564;5.460;2023-05-23T02:39:05;101673.47;;;14.51;100.00
58473;BME280;44775;51.564;5.460;2023-05-23T02:41:30;101665.72;;;14.40;100.00
58473;BME280;44775;51.564;5.460;2023-05-23T02:43:57;101669.25;;;14.40;100.00
58473;BME280;44775;51.564;5.460;2023-05-23T02:46:22;101674.72;;;14.24;100.00
58473;BME280;44775;51.564;5.460;2023-05-23T02:48:47;101679.41;;;14.22;100.00
58473;BME280;44775;51.564;5.460;2023-05-23T02:51:13;101668.97;;;14.27;100.00
58473;BME280;44775;51.564;5.460;2023-05-23T02:53:38;101671.66;;;14.27;100.00
58473;BME280;44775;51.564;5.460;2023-05-23T02:56:04;101681.50;;;14.59;100.00
58473;BME280;44775;51.564;5.460;2023-05-23T02:58:30;101678.94;;;14.66;100.00
58473;BME280;44775;51.564;5.460;2023-05-23T03:00:56;101676.41;;;14.73;100.00
58473;BME280;44775;51.564;5.460;2023-05-23T03:03:21;101680.94;;;14.72;100.00
58473;BME280;44775;51.564;5.460;2023-05-23T03:05:46;101683.22;;;14.52;100.00
58473;BME280;44775;51.564;5.460;2023-05-23T03:08:12;101675.16;;;14.36;100.00
58473;BME280;44775;51.564;5.460;2023-05-23T03:10:37;101668.66;;;14.22;100.00
58473;BME280;44775;51.564;5.460;2023-05-23T03:13:02;101677.78;;;14.05;100.00
58473;BME280;44775;51.564;5.460;2023-05-23T03:15:28;101673.06;;;14.07;100.00
58473;BME280;44775;51.564;5.460;2023-05-23T03:17:53;101667.97;;;14.20;100.00
58473;BME280;44775;51.564;5.460;2023-05-23T03:20:19;101679.84;;;14.42;100.00
58473;BME280;44775;51.564;5.460;2023-05-23T03:22:44;101668.06;;;14.43;100.00
58473;BME280;44775;51.564;5.460;2023-05-23T03:25:10;101663.97;;;14.16;100.00
58473;BME280;44775;51.564;5.460;2023-05-23T03:27:35;101673.06;;;14.07;100.00
58473;BME280;44775;51.564;5.460;2023-05-23T03:30:02;101670.22;;;14.00;100.00
58473;BME280;44775;51.564;5.460;2023-05-23T03:32:28;101673.56;;;14.02;100.00
58473;BME280;44775;51.564;5.460;2023-05-23T03:34:53;101680.47;;;13.97;100.00
58473;BME280;44775;51.564;5.460;2023-05-23T03:37:18;101684.16;;;13.96;100.00
58473;BME280;44775;51.564;5.460;2023-05-23T03:39:43;101682.16;;;13.98;100.00
58473;BME280;44775;51.564;5.460;2023-05-23T03:42:09;101675.25;;;14.03;100.00
58473;BME280;44775;51.564;5.460;2023-05-23T03:44:34;101680.81;;;14.02;100.00
58473;BME280;44775;51.564;5.460;2023-05-23T03:46:59;101684.97;;;14.12;100.00
58473;BME280;44775;51.564;5.460;2023-05-23T03:49:25;101684.78;;;14.14;100.00
58473;BME280;44775;51.564;5.460;2023-05-23T03:51:50;101688.50;;;14.21;100.00
58473;BME280;44775;51.564;5.460;2023-05-23T03:54:16;101690.47;;;14.35;100.00
58473;BME280;44775;51.564;5.460;2023-05-23T03:56:42;101694.19;;;14.34;100.00
58473;BME280;44775;51.564;5.460;2023-05-23T03:59:07;101694.44;;;14.48;100.00
58473;BME280;44775;51.564;5.460;2023-05-23T04:01:33;101699.03;;;14.31;100.00
58473;BME280;44775;51.564;5.460;2023-05-23T04:03:58;101695.00;;;14.35;100.00
58473;BME280;44775;51.564;5.460;2023-05-23T04:06:24;101696.03;;;14.26;100.00
58473;BME280;44775;51.564;5.460;2023-05-23T04:08:50;101703.38;;;14.40;100.00
58473;BME280;44775;51.564;5.460;2023-05-23T04:11:15;101710.16;;;14.28;100.00
58473;BME280;44775;51.564;5.460;2023-05-23T04:13:41;101696.00;;;14.34;100.00
58473;BME280;44775;51.564;5.460;2023-05-23T04:16:06;101704.38;;;14.47;100.00
58473;BME280;44775;51.564;5.460;2023-05-23T04:18:32;101712.81;;;14.36;100.00
58473;BME280;44775;51.564;5.460;2023-05-23T04:20:58;101701.50;;;14.49;100.00
58473;BME280;44775;51.564;5.460;2023-05-23T04:23:23;101711.72;;;14.70;100.00
58473;BME280;44775;51.564;5.460;2023-05-23T04:25:48;101707.41;;;14.52;100.00
58473;BME280;44775;51.564;5.460;2023-05-23T04:28:15;101716.66;;;14.58;100.00
58473;BME280;44775;51.564;5.460;2023-05-23T04:30:42;101719.09;;;14.68;100.00
58473;BME280;44775;51.564;5.460;2023-05-23T04:33:07;101712.63;;;14.37;100.00
58473;BME280;44775;51.564;5.460;2023-05-23T04:35:34;101721.06;;;14.34;100.00
58473;BME280;44775;51.564;5.460;2023-05-23T04:38:02;101724.03;;;14.48;100.00
58473;BME280;44775;51.564;5.460;2023-05-23T04:40:28;101724.22;;;14.46;100.00
58473;BME280;44775;51.564;5.460;2023-05-23T04:42:53;101730.44;;;14.55;100.00
58473;BME280;44775;51.564;5.460;2023-05-23T04:45:18;101724.75;;;14.41;100.00
58473;BME280;44775;51.564;5.460;2023-05-23T04:47:44;101734.47;;;14.59;100.00
58473;BME280;44775;51.564;5.460;2023-05-23T04:50:10;101740.19;;;14.39;100.00
58473;BME280;44775;51.564;5.460;2023-05-23T04:52:36;101737.69;;;14.30;100.00
58473;BME280;44775;51.564;5.460;2023-05-23T04:55:01;101744.06;;;14.37;100.00
58473;BME280;44775;51.564;5.460;2023-05-23T04:57:27;101747.94;;;14.34;100.00
58473;BME280;44775;51.564;5.460;2023-05-23T04:59:52;101739.88;;;14.34;100.00
58473;BME280;44775;51.564;5.460;2023-05-23T05:02:18;101742.53;;;14.43;100.00
58473;BME280;44775;51.564;5.460;2023-05-23T05:04:43;101744.56;;;14.40;100.00
58473;BME280;44775;51.564;5.460;2023-05-23T05:07:09;101742.34;;;14.44;100.00
58473;BME280;44775;51.564;5.460;2023-05-23T05:09:34;101755.31;;;14.40;100.00
58473;BME280;44775;51.564;5.460;2023-05-23T05:12:00;101753.34;;;14.18;100.00
58473;BME280;44775;51.564;5.460;2023-05-23T05:14:25;101749.97;;;14.32;100.00
58473;BME280;44775;51.564;5.460;2023-05-23T05:16:52;101757.53;;;14.21;100.00
58473;BME280;44775;51.564;5.460;2023-05-23T05:19:19;101756.03;;;14.10;100.00
58473;BME280;44775;51.564;5.460;2023-05-23T05:21:45;101770.63;;;14.32;100.00
58473;BME280;44775;51.564;5.460;2023-05-23T05:24:10;101767.75;;;14.41;100.00
58473;BME280;44775;51.564;5.460;2023-05-23T05:26:37;101776.66;;;14.58;100.00
58473;BME280;44775;51.564;5.460;2023-05-23T05:29:02;101774.50;;;14.29;100.00
58473;BME280;44775;51.564;5.460;2023-05-23T05:31:28;101775.66;;;14.27;100.00
58473;BME280;44775;51.564;5.460;2023-05-23T05:33:53;101770.41;;;14.50;100.00
58473;BME280;44775;51.564;5.460;2023-05-23T05:36:19;101781.53;;;14.38;100.00
58473;BME280;44775;51.564;5.460;2023-05-23T05:38:44;101782.38;;;14.39;100.00
58473;BME280;44775;51.564;5.460;2023-05-23T05:41:10;101788.28;;;14.34;100.00
58473;BME280;44775;51.564;5.460;2023-05-23T05:43:35;101786.59;;;14.25;100.00
58473;BME280;44775;51.564;5.460;2023-05-23T05:46:00;101789.47;;;14.32;100.00
58473;BME280;44775;51.564;5.460;2023-05-23T05:48:26;101801.41;;;14.21;100.00
58473;BME280;44775;51.564;5.460;2023-05-23T05:50:51;101805.44;;;14.25;100.00
58473;BME280;44775;51.564;5.460;2023-05-23T05:53:16;101806.09;;;14.35;100.00
58473;BME280;44775;51.564;5.460;2023-05-23T05:55:42;101808.63;;;14.29;100.00
58473;BME280;44775;51.564;5.460;2023-05-23T05:58:07;101812.81;;;14.31;100.00
58473;BME280;44775;51.564;5.460;2023-05-23T06:00:33;101809.78;;;14.10;100.00
58473;BME280;44775;51.564;5.460;2023-05-23T06:03:05;101813.16;;;14.28;100.00
58473;BME280;44775;51.564;5.460;2023-05-23T06:05:31;101810.81;;;14.25;100.00
58473;BME280;44775;51.564;5.460;2023-05-23T06:07:56;101815.81;;;14.36;100.00
58473;BME280;44775;51.564;5.460;2023-05-23T06:10:21;101823.38;;;14.33;100.00
58473;BME280;44775;51.564;5.460;2023-05-23T06:12:48;101817.50;;;14.29;100.00
58473;BME280;44775;51.564;5.460;2023-05-23T06:15:14;101826.94;;;14.25;100.00
58473;BME280;44775;51.564;5.460;2023-05-23T06:17:40;101829.44;;;14.10;100.00
58473;BME280;44775;51.564;5.460;2023-05-23T06:20:06;101835.00;;;14.09;100.00
58473;BME280;44775;51.564;5.460;2023-05-23T06:22:32;101837.16;;;13.97;100.00
58473;BME280;44775;51.564;5.460;2023-05-23T06:24:59;101840.53;;;14.15;100.00
58473;BME280;44775;51.564;5.460;2023-05-23T06:27:24;101844.91;;;14.16;100.00
58473;BME280;44775;51.564;5.460;2023-05-23T06:29:49;101838.53;;;14.01;100.00
58473;BME280;44775;51.564;5.460;2023-05-23T06:32:15;101848.25;;;14.10;100.00
58473;BME280;44775;51.564;5.460;2023-05-23T06:34:40;101847.44;;;14.18;100.00
58473;BME280;44775;51.564;5.460;2023-05-23T06:37:05;101849.28;;;14.17;100.00
58473;BME280;44775;51.564;5.460;2023-05-23T06:39:31;101847.59;;;13.84;100.00
58473;BME280;44775;51.564;5.460;2023-05-23T06:41:56;101852.25;;;13.90;100.00
58473;BME280;44775;51.564;5.460;2023-05-23T06:44:21;101856.81;;;13.89;100.00
58473;BME280;44775;51.564;5.460;2023-05-23T06:46:47;101855.47;;;13.85;100.00
58473;BME280;44775;51.564;5.460;2023-05-23T06:49:13;101864.00;;;13.64;100.00
58473;BME280;44775;51.564;5.460;2023-05-23T06:51:39;101875.75;;;13.72;100.00
58473;BME280;44775;51.564;5.460;2023-05-23T06:54:04;101871.84;;;13.58;100.00
58473;BME280;44775;51.564;5.460;2023-05-23T06:56:30;101882.31;;;13.85;100.00
58473;BME280;44775;51.564;5.460;2023-05-23T06:58:55;101877.13;;;13.92;100.00
58473;BME280;44775;51.564;5.460;2023-05-23T07:01:20;101881.03;;;13.98;100.00
58473;BME280;44775;51.564;5.460;2023-05-23T07:03:46;101896.31;;;14.05;99.34
58473;BME280;44775;51.564;5.460;2023-05-23T07:06:11;101896.97;;;13.99;97.80
58473;BME280;44775;51.564;5.460;2023-05-23T07:08:40;101899.50;;;14.09;96.91
58473;BME280;44775;51.564;5.460;2023-05-23T07:11:05;101907.41;;;14.27;95.82
58473;BME280;44775;51.564;5.460;2023-05-23T07:13:31;101897.31;;;14.21;91.97
58473;BME280;44775;51.564;5.460;2023-05-23T07:15:56;101893.47;;;14.39;94.17
58473;BME280;44775;51.564;5.460;2023-05-23T07:18:22;101895.53;;;14.62;94.23
58473;BME280;44775;51.564;5.460;2023-05-23T07:20:47;101904.22;;;14.48;87.84
58473;BME280;44775;51.564;5.460;2023-05-23T07:23:13;101901.72;;;14.46;87.79
58473;BME280;44775;51.564;5.460;2023-05-23T07:25:38;101894.31;;;14.73;91.81
58473;BME280;44775;51.564;5.460;2023-05-23T07:28:04;101907.59;;;14.82;84.44
58473;BME280;44775;51.564;5.460;2023-05-23T07:30:30;101896.28;;;15.03;87.69
58473;BME280;44775;51.564;5.460;2023-05-23T07:32:55;101894.03;;;15.15;89.40
58473;BME280;44775;51.564;5.460;2023-05-23T07:35:21;101912.88;;;15.23;84.97
58473;BME280;44775;51.564;5.460;2023-05-23T07:37:51;101908.56;;;15.06;78.27
58473;BME280;44775;51.564;5.460;2023-05-23T07:40:16;101903.88;;;14.92;79.41
58473;BME280;44775;51.564;5.460;2023-05-23T07:42:41;101895.22;;;15.21;80.83
58473;BME280;44775;51.564;5.460;2023-05-23T07:45:07;101915.44;;;15.17;80.92
58473;BME280;44775;51.564;5.460;2023-05-23T07:47:32;101911.31;;;15.37;86.25
58473;BME280;44775;51.564;5.460;2023-05-23T07:49:57;101925.03;;;15.58;82.36
58473;BME280;44775;51.564;5.460;2023-05-23T07:52:23;101912.50;;;15.34;75.70
58473;BME280;44775;51.564;5.460;2023-05-23T07:54:48;101915.19;;;15.34;78.38
58473;BME280;44775;51.564;5.460;2023-05-23T07:57:13;101915.94;;;15.59;78.06
58473;BME280;44775;51.564;5.460;2023-05-23T07:59:40;101913.56;;;15.73;74.36
58473;BME280;44775;51.564;5.460;2023-05-23T08:02:06;101922.66;;;15.64;73.47
58473;BME280;44775;51.564;5.460;2023-05-23T08:04:31;101929.22;;;15.61;74.46
58473;BME280;44775;51.564;5.460;2023-05-23T08:06:57;101931.25;;;15.59;74.97
58473;BME280;44775;51.564;5.460;2023-05-23T08:09:24;101932.78;;;15.93;81.53
58473;BME280;44775;51.564;5.460;2023-05-23T08:11:50;101933.50;;;16.41;81.02
58473;BME280;44775;51.564;5.460;2023-05-23T08:14:15;101940.78;;;16.55;78.36
58473;BME280;44775;51.564;5.460;2023-05-23T08:16:40;101947.88;;;16.10;71.61
58473;BME280;44775;51.564;5.460;2023-05-23T08:19:06;101945.22;;;16.02;78.57
58473;BME280;44775;51.564;5.460;2023-05-23T08:21:31;101953.66;;;15.68;79.40
58473;BME280;44775;51.564;5.460;2023-05-23T08:23:57;101953.59;;;15.76;76.92
58473;BME280;44775;51.564;5.460;2023-05-23T08:26:23;101925.75;;;15.52;76.73
58473;BME280;44775;51.564;5.460;2023-05-23T08:28:48;101947.06;;;15.62;81.70
58473;BME280;44775;51.564;5.460;2023-05-23T08:31:14;101954.59;;;15.27;77.75
58473;BME280;44775;51.564;5.460;2023-05-23T08:33:39;101926.50;;;15.22;81.56
58473;BME280;44775;51.564;5.460;2023-05-23T08:36:04;101945.44;;;15.45;80.94
58473;BME280;44775;51.564;5.460;2023-05-23T08:38:29;101955.38;;;15.52;79.53
58473;BME280;44775;51.564;5.460;2023-05-23T08:40:59;101949.81;;;15.54;79.96
58473;BME280;44775;51.564;5.460;2023-05-23T08:43:25;101946.59;;;15.03;79.92
58473;BME280;44775;51.564;5.460;2023-05-23T08:45:51;101942.91;;;14.87;83.33
58473;BME280;44775;51.564;5.460;2023-05-23T08:48:18;101947.88;;;15.15;84.21
58473;BME280;44775;51.564;5.460;2023-05-23T08:50:45;101961.13;;;15.41;85.03
58473;BME280;44775;51.564;5.460;2023-05-23T08:53:14;101965.91;;;15.15;82.20
58473;BME280;44775;51.564;5.460;2023-05-23T08:55:45;101959.38;;;15.01;86.66
58473;BME280;44775;51.564;5.460;2023-05-23T08:58:10;101970.81;;;14.95;84.45
58473;BME280;44775;51.564;5.460;2023-05-23T09:00:37;101956.50;;;15.10;83.20
58473;BME280;44775;51.564;5.460;2023-05-23T09:03:03;101967.28;;;15.58;82.45
58473;BME280;44775;51.564;5.460;2023-05-23T09:05:28;101967.41;;;16.12;81.08
58473;BME280;44775;51.564;5.460;2023-05-23T09:07:54;101964.78;;;16.50;77.69
58473;BME280;44775;51.564;5.460;2023-05-23T09:10:21;101980.00;;;16.66;76.91
58473;BME280;44775;51.564;5.460;2023-05-23T09:12:46;101976.34;;;16.59;75.75
58473;BME280;44775;51.564;5.460;2023-05-23T09:15:12;101971.66;;;16.29;74.40
58473;BME280;44775;51.564;5.460;2023-05-23T09:17:38;101979.50;;;16.16;75.28
58473;BME280;44775;51.564;5.460;2023-05-23T09:20:12;101991.63;;;16.20;74.84
58473;BME280;44775;51.564;5.460;2023-05-23T09:22:38;101975.72;;;16.34;78.49
58473;BME280;44775;51.564;5.460;2023-05-23T09:25:04;101984.44;;;16.36;76.04
58473;BME280;44775;51.564;5.460;2023-05-23T09:27:29;101992.16;;;16.47;76.37
58473;BME280;44775;51.564;5.460;2023-05-23T09:29:55;101988.06;;;16.51;72.31
58473;BME280;44775;51.564;5.460;2023-05-23T09:32:20;101998.63;;;16.61;69.64
58473;BME280;44775;51.564;5.460;2023-05-23T09:37:15;102006.50;;;16.62;73.26
58473;BME280;44775;51.564;5.460;2023-05-23T09:39:45;102004.59;;;16.48;70.08
58473;BME280;44775;51.564;5.460;2023-05-23T09:42:11;101994.09;;;16.30;69.92
58473;BME280;44775;51.564;5.460;2023-05-23T09:44:40;101995.19;;;16.44;74.85
58473;BME280;44775;51.564;5.460;2023-05-23T09:47:06;102000.84;;;16.57;73.13
58473;BME280;44775;51.564;5.460;2023-05-23T09:49:31;101998.69;;;16.75;74.71
58473;BME280;44775;51.564;5.460;2023-05-23T09:51:57;101996.75;;;16.61;67.04
58473;BME280;44775;51.564;5.460;2023-05-23T09:54:23;102006.50;;;16.62;68.73
58473;BME280;44775;51.564;5.460;2023-05-23T09:56:51;102009.59;;;16.82;69.59
58473;BME280;44775;51.564;5.460;2023-05-23T09:59:19;102012.88;;;16.92;64.51
58473;BME280;44775;51.564;5.460;2023-05-23T10:01:50;102010.09;;;17.00;63.90
58473;BME280;44775;51.564;5.460;2023-05-23T10:04:17;102003.72;;;17.31;68.05
58473;BME280;44775;51.564;5.460;2023-05-23T10:06:50;102010.66;;;17.63;62.97
58473;BME280;44775;51.564;5.460;2023-05-23T10:09:19;101994.97;;;18.03;55.89
58473;BME280;44775;51.564;5.460;2023-05-23T10:14:39;102002.41;;;18.74;56.07
58473;BME280;44775;51.564;5.460;2023-05-23T10:17:14;101998.00;;;18.94;60.77
58473;BME280;44775;51.564;5.460;2023-05-23T10:22:11;102008.22;;;18.99;49.41
58473;BME280;44775;51.564;5.460;2023-05-23T10:24:38;102001.03;;;19.41;52.18
58473;BME280;44775;51.564;5.460;2023-05-23T10:27:05;102007.47;;;19.68;48.96
58473;BME280;44775;51.564;5.460;2023-05-23T10:29:31;102006.72;;;19.87;50.84
58473;BME280;44775;51.564;5.460;2023-05-23T10:31:58;102008.09;;;20.18;46.88
58473;BME280;44775;51.564;5.460;2023-05-23T10:34:31;102013.56;;;20.31;45.13
58473;BME280;44775;51.564;5.460;2023-05-23T10:37:02;102012.38;;;20.54;46.14
58473;BME280;44775;51.564;5.460;2023-05-23T10:42:55;102023.69;;;20.77;45.36
58473;BME280;44775;51.564;5.460;2023-05-23T10:45:23;102012.41;;;20.80;48.56
58473;BME280;44775;51.564;5.460;2023-05-23T10:47:50;101998.84;;;21.00;49.24
58473;BME280;44775;51.564;5.460;2023-05-23T10:50:35;102005.09;;;20.81;43.53
58473;BME280;44775;51.564;5.460;2023-05-23T10:53:05;101995.34;;;20.05;45.68
58473;BME280;44775;51.564;5.460;2023-05-23T10:55:32;101998.69;;;19.66;43.64
58473;BME280;44775;51.564;5.460;2023-05-23T10:58:11;102016.19;;;19.63;47.30
58473;BME280;44775;51.564;5.460;2023-05-23T11:00:36;102006.69;;;19.80;47.36
58473;BME280;44775;51.564;5.460;2023-05-23T11:03:04;102011.59;;;19.98;46.07
58473;BME280;44775;51.564;5.460;2023-05-23T11:05:33;102013.44;;;19.91;50.10
58473;BME280;44775;51.564;5.460;2023-05-23T11:13:20;102008.22;;;20.64;42.70
58473;BME280;44775;51.564;5.460;2023-05-23T11:15:46;102005.28;;;20.52;41.94
58473;BME280;44775;51.564;5.460;2023-05-23T11:18:27;102003.59;;;20.51;43.52
58473;BME280;44775;51.564;5.460;2023-05-23T11:20:53;102008.13;;;20.38;41.69
58473;BME280;44775;51.564;5.460;2023-05-23T11:23:20;102019.50;;;20.74;40.69
58473;BME280;44775;51.564;5.460;2023-05-23T11:25:50;102010.13;;;20.97;48.41
58473;BME280;44775;51.564;5.460;2023-05-23T11:28:17;102027.03;;;21.06;39.03
58473;BME280;44775;51.564;5.460;2023-05-23T11:30:42;102021.19;;;21.09;41.27
58473;BME280;44775;51.564;5.460;2023-05-23T11:33:12;102001.53;;;21.20;46.01
58473;BME280;44775;51.564;5.460;2023-05-23T11:35:50;102012.00;;;21.30;41.13
58473;BME280;44775;51.564;5.460;2023-05-23T11:38:16;102019.91;;;21.31;40.15
58473;BME280;44775;51.564;5.460;2023-05-23T11:40:44;102019.75;;;20.99;41.44
58473;BME280;44775;51.564;5.460;2023-05-23T11:43:12;102021.41;;;21.20;45.54
58473;BME280;44775;51.564;5.460;2023-05-23T11:45:39;102027.28;;;21.37;43.17
58473;BME280;44775;51.564;5.460;2023-05-23T11:48:12;102036.88;;;21.47;39.49
58473;BME280;44775;51.564;5.460;2023-05-23T11:50:49;102029.56;;;21.20;40.46
58473;BME280;44775;51.564;5.460;2023-05-23T11:53:16;102011.19;;;20.89;38.62
58473;BME280;44775;51.564;5.460;2023-05-23T11:55:50;102035.41;;;20.84;40.29
58473;BME280;44775;51.564;5.460;2023-05-23T11:58:17;102026.81;;;20.67;41.75
58473;BME280;44775;51.564;5.460;2023-05-23T12:00:44;102028.84;;;20.45;41.09
58473;BME280;44775;51.564;5.460;2023-05-23T12:03:09;102033.88;;;19.94;41.73
58473;BME280;44775;51.564;5.460;2023-05-23T12:05:35;102021.25;;;20.27;45.08
58473;BME280;44775;51.564;5.460;2023-05-23T12:08:01;102026.19;;;20.79;39.31
58473;BME280;44775;51.564;5.460;2023-05-23T12:10:27;102019.94;;;20.78;40.19
58473;BME280;44775;51.564;5.460;2023-05-23T12:12:52;102016.53;;;20.49;39.36
58473;BME280;44775;51.564;5.460;2023-05-23T12:15:17;102030.69;;;20.38;42.52
58473;BME280;44775;51.564;5.460;2023-05-23T12:17:44;102024.00;;;20.34;47.04
58473;BME280;44775;51.564;5.460;2023-05-23T12:20:12;102030.03;;;19.75;47.32
58473;BME280;44775;51.564;5.460;2023-05-23T12:22:38;102028.75;;;19.64;45.01
58473;BME280;44775;51.564;5.460;2023-05-23T12:25:07;102025.69;;;20.28;45.57
58473;BME280;44775;51.564;5.460;2023-05-23T12:27:34;102041.66;;;20.71;41.45
58473;BME280;44775;51.564;5.460;2023-05-23T12:30:09;102041.06;;;20.83;44.08
58473;BME280;44775;51.564;5.460;2023-05-23T12:32:39;102039.84;;;20.24;39.89
58473;BME280;44775;51.564;5.460;2023-05-23T12:35:09;102043.47;;;19.90;38.92
58473;BME280;44775;51.564;5.460;2023-05-23T12:37:55;102040.41;;;20.06;46.98
58473;BME280;44775;51.564;5.460;2023-05-23T12:40:20;102035.25;;;20.24;45.70
58473;BME280;44775;51.564;5.460;2023-05-23T12:42:55;102037.06;;;20.52;41.82
58473;BME280;44775;51.564;5.460;2023-05-23T12:45:31;102060.91;;;20.15;44.67
58473;BME280;44775;51.564;5.460;2023-05-23T12:48:01;102066.91;;;20.65;40.72
58473;BME280;44775;51.564;5.460;2023-05-23T12:50:26;102052.13;;;20.94;40.89
58473;BME280;44775;51.564;5.460;2023-05-23T12:52:52;102061.75;;;20.90;45.29
58473;BME280;44775;51.564;5.460;2023-05-23T12:55:17;102066.72;;;20.67;39.71
58473;BME280;44775;51.564;5.460;2023-05-23T12:57:42;102057.78;;;20.18;38.23
58473;BME280;44775;51.564;5.460;2023-05-23T13:00:09;102054.53;;;20.43;44.23
58473;BME280;44775;51.564;5.460;2023-05-23T13:02:34;102047.09;;;20.78;45.82
58473;BME280;44775;51.564;5.460;2023-05-23T13:04:59;102056.31;;;20.97;49.56